USCGC Tern — NEOT — position and weather

sailwx.info

Track history (hours):
 
Tides and Currents Weather Stations Pressure Air Temp Water Temp Dewpoint Dewpoint Depression Visibility Wind Speed Wind Dir Waves Ship Positions

USCGC Tern

Last reported at 2016-Aug-24 19:33 UTC. Time now 2016-Aug-26 05:00 UTC.
Position N 33°21' W 118°19'.

Length 26 m; draft 1.7 m.

Type: Law enforcement. MMSI: 366999711.

Date/timePositionNaut miles runAvg speedWind from/ knotsBaromVisibWave heightAir tempDewpointWater temp
2016-Aug-24 19:33N 33°21' W 118°19'4 3.6
2016-Aug-24 18:31N 33°18' W 118°17'1212.0
2016-Aug-24 17:33N 33°20' W 118°31'12 0.8
2016-Aug-24 02:33N 33°32' W 118°33'1413.6
2016-Aug-24 01:34N 33°40' W 118°19'4 4.5
2016-Aug-24 00:33N 33°43' W 118°16'9 9.0
2016-Aug-23 23:33N 33°41' W 118°26'1413.8
2016-Aug-23 22:31N 33°43' W 118°43'8 7.9
2016-Aug-23 21:33N 33°44' W 118°52'3 3.0
2016-Aug-23 20:32N 33°45' W 118°49'5 5.5
2016-Aug-23 19:33N 33°43' W 118°43'1010.1
2016-Aug-23 18:33N 33°42' W 118°31'1312.7
2016-Aug-23 17:33N 33°41' W 118°15'3 2.6
2016-Aug-23 16:33N 33°44' W 118°16'0 0.0
2016-Aug-23 15:27N 33°44' W 118°16'0 0.0
2016-Aug-23 12:24N 33°44' W 118°16'0 0.0
2016-Aug-23 11:27N 33°44' W 118°16'0 0.0
2016-Aug-23 10:33N 33°44' W 118°16'0 0.0
2016-Aug-23 09:31N 33°44' W 118°16'0 0.0
2016-Aug-23 07:30N 33°44' W 118°16'0 0.1
2016-Aug-23 06:33N 33°44' W 118°16'0 0.0
2016-Aug-23 05:30N 33°44' W 118°16'0 0.0
2016-Aug-23 04:30N 33°44' W 118°16'0 0.1
2016-Aug-23 03:33N 33°44' W 118°16'0 0.0
2016-Aug-23 02:30N 33°44' W 118°16'0 0.0
2016-Aug-23 01:13N 33°44' W 118°16'0 0.1
2016-Aug-23 00:33N 33°44' W 118°16'0 0.0
2016-Aug-22 23:18N 33°44' W 118°16'0 0.0
2016-Aug-22 22:33N 33°44' W 118°16'0 0.0
2016-Aug-22 21:33N 33°44' W 118°16'0 0.2
2016-Aug-22 20:33N 33°44' W 118°16'0 0.1
2016-Aug-22 19:33N 33°44' W 118°16'  
Track history (hours):
 
Tides and Currents Weather Stations Pressure Air Temp Water Temp Dewpoint Dewpoint Depression Visibility Wind Speed Wind Dir Waves Ship Positions

USCGC Tern

Last reported at 2016-Aug-24 19:33 UTC. Time now 2016-Aug-26 05:00 UTC.
Position N 33°21' W 118°19'.

Length 26 m; draft 1.7 m.

Type: Law enforcement. MMSI: 366999711.

Date/timePositionNaut miles runAvg speedWind from/ knotsBaromVisibWave heightAir tempDewpointWater temp
2016-Aug-24 19:33N 33°21' W 118°19'4 3.6
2016-Aug-24 18:31N 33°18' W 118°17'1212.0
2016-Aug-24 17:33N 33°20' W 118°31'12 0.8
2016-Aug-24 02:33N 33°32' W 118°33'1413.6
2016-Aug-24 01:34N 33°40' W 118°19'4 4.5
2016-Aug-24 00:33N 33°43' W 118°16'9 9.0
2016-Aug-23 23:33N 33°41' W 118°26'1413.8
2016-Aug-23 22:31N 33°43' W 118°43'8 7.9
2016-Aug-23 21:33N 33°44' W 118°52'3 3.0
2016-Aug-23 20:32N 33°45' W 118°49'5 5.5
2016-Aug-23 19:33N 33°43' W 118°43'1010.1
2016-Aug-23 18:33N 33°42' W 118°31'1312.7
2016-Aug-23 17:33N 33°41' W 118°15'3 2.6
2016-Aug-23 16:33N 33°44' W 118°16'0 0.0
2016-Aug-23 15:27N 33°44' W 118°16'0 0.0
2016-Aug-23 12:24N 33°44' W 118°16'0 0.0
2016-Aug-23 11:27N 33°44' W 118°16'0 0.0
2016-Aug-23 10:33N 33°44' W 118°16'0 0.0
2016-Aug-23 09:31N 33°44' W 118°16'0 0.0
2016-Aug-23 07:30N 33°44' W 118°16'0 0.1
2016-Aug-23 06:33N 33°44' W 118°16'0 0.0
2016-Aug-23 05:30N 33°44' W 118°16'0 0.0
2016-Aug-23 04:30N 33°44' W 118°16'0 0.1
2016-Aug-23 03:33N 33°44' W 118°16'0 0.0
2016-Aug-23 02:30N 33°44' W 118°16'0 0.0
2016-Aug-23 01:13N 33°44' W 118°16'0 0.1
2016-Aug-23 00:33N 33°44' W 118°16'0 0.0
2016-Aug-22 23:18N 33°44' W 118°16'0 0.0
2016-Aug-22 22:33N 33°44' W 118°16'0 0.0
2016-Aug-22 21:33N 33°44' W 118°16'0 0.2
2016-Aug-22 20:33N 33°44' W 118°16'0 0.1
2016-Aug-22 19:33N 33°44' W 118°16'  

Dump ship's entire track history